APL Norway — A8NC4 — position and weather

sailwx.info

Track history (hours):
 
Tides and Currents Weather Stations Pressure Air Temp Water Temp Dewpoint Dewpoint Depression Visibility Wind Speed Wind Dir Waves Ship Positions

APL Norway

Last reported at 2016-Jun-29 18:33 UTC. Time now 2016-Jun-29 23:48 UTC.
Position N 08°05' W 079°27'.

Length 295 m; draft 10.3 m.

Type: Cargo ship. MMSI: 636013456.

Date/timePositionNaut miles runAvg speedWind from/ knotsBaromVisibWave heightAir tempDewpointWater temp
2016-Jun-29 18:33N 08°05' W 079°27'2019.1
2016-Jun-29 17:30N 08°25' W 079°27'2318.9
2016-Jun-29 16:16N 08°48' W 079°29'9 8.0
2016-Jun-29 15:06N 08°56' W 079°34'1 0.1
2016-Jun-29 02:30N 08°58' W 079°34'0 0.0
2016-Jun-29 01:33N 08°58' W 079°34'0 0.0
2016-Jun-29 00:33N 08°58' W 079°34'0 0.0
2016-Jun-28 23:33N 08°58' W 079°34'0 0.0
2016-Jun-28 21:24N 08°58' W 079°34'0 0.0
2016-Jun-28 19:27N 08°58' W 079°34'0 0.2
2016-Jun-28 18:30N 08°57' W 079°34'7 7.0
2016-Jun-28 17:32N 08°52' W 079°30'2 0.3
2016-Jun-28 10:31N 08°50' W 079°28'  
Track history (hours):
 
Tides and Currents Weather Stations Pressure Air Temp Water Temp Dewpoint Dewpoint Depression Visibility Wind Speed Wind Dir Waves Ship Positions

APL Norway

Last reported at 2016-Jun-29 18:33 UTC. Time now 2016-Jun-29 23:48 UTC.
Position N 08°05' W 079°27'.

Length 295 m; draft 10.3 m.

Type: Cargo ship. MMSI: 636013456.

Date/timePositionNaut miles runAvg speedWind from/ knotsBaromVisibWave heightAir tempDewpointWater temp
2016-Jun-29 18:33N 08°05' W 079°27'2019.1
2016-Jun-29 17:30N 08°25' W 079°27'2318.9
2016-Jun-29 16:16N 08°48' W 079°29'9 8.0
2016-Jun-29 15:06N 08°56' W 079°34'1 0.1
2016-Jun-29 02:30N 08°58' W 079°34'0 0.0
2016-Jun-29 01:33N 08°58' W 079°34'0 0.0
2016-Jun-29 00:33N 08°58' W 079°34'0 0.0
2016-Jun-28 23:33N 08°58' W 079°34'0 0.0
2016-Jun-28 21:24N 08°58' W 079°34'0 0.0
2016-Jun-28 19:27N 08°58' W 079°34'0 0.2
2016-Jun-28 18:30N 08°57' W 079°34'7 7.0
2016-Jun-28 17:32N 08°52' W 079°30'2 0.3
2016-Jun-28 10:31N 08°50' W 079°28'  

Dump ship's entire track history